Time;durP1;ratioP1;P1;durP2;ratioP2;P2;SDS_P1;SDS_P2;PMS_P1;PMS_P2;Temp;Humidity;BMP_temperature;BMP_pressure;BME280_temperature;BME280_humidity;BME280_pressure;Samples;Min_cycle;Max_cycle;Signal;HPM_P1;HPM_P2
2022/01/05 00:00:20;;;;;;;;;;;;;;;18.84;48.40039;100031.8;;;;-56
2022/01/05 00:05:20;;;;;;;;;;;;;;;18.81;48.34082;100030.6;;;;-53
2022/01/05 00:10:20;;;;;;;;;;;;;;;18.81;48.1582;100026.5;;;;-52
2022/01/05 00:14:52;;;;;;;3;0.6;;;;;;;;;;;;;-53
2022/01/05 00:15:20;;;;;;;;;;;;;;;18.82;48.0918;100020.7;;;;-52
2022/01/05 00:20:20;;;;;;;;;;;;;;;18.83;48.20703;100018.4;;;;-58
2022/01/05 00:25:20;;;;;;;;;;;;;;;18.83;48.2627;100021;;;;-57
2022/01/05 00:30:20;;;;;;;;;;;;;;;18.83;48.13867;100022.7;;;;-56
2022/01/05 00:35:20;;;;;;;;;;;;;;;18.82;48.02246;100022.2;;;;-54
2022/01/05 00:40:20;;;;;;;;;;;;;;;18.8;47.72461;100013.7;;;;-54
2022/01/05 00:44:54;;;;;;;4.3;0.7;;;;;;;;;;;;;-56
2022/01/05 00:45:20;;;;;;;;;;;;;;;18.82;48.1377;100016.9;;;;-54
2022/01/05 00:50:20;;;;;;;;;;;;;;;18.83;47.97852;100015.7;;;;-58
2022/01/05 00:55:20;;;;;;;;;;;;;;;18.83;47.9668;100016.2;;;;-56
2022/01/05 01:00:20;;;;;;;;;;;;;;;18.84;48.10449;100017.6;;;;-56
2022/01/05 01:05:20;;;;;;;;;;;;;;;18.83;47.96777;100017.2;;;;-56
2022/01/05 01:10:20;;;;;;;;;;;;;;;18.84;47.84375;100015.7;;;;-55
2022/01/05 01:14:57;;;;;;;2.4;0.8;;;;;;;;;;;;;-55
2022/01/05 01:15:20;;;;;;;;;;;;;;;18.82;47.41992;100016.9;;;;-57
2022/01/05 01:20:20;;;;;;;;;;;;;;;18.83;47.75098;100017.7;;;;-57
2022/01/05 01:25:20;;;;;;;;;;;;;;;18.81;47.8623;100017.5;;;;-54
2022/01/05 01:30:20;;;;;;;;;;;;;;;18.82;47.76172;100022.4;;;;-55
2022/01/05 01:35:20;;;;;;;;;;;;;;;18.83;47.70508;100016.9;;;;-56
2022/01/05 01:40:20;;;;;;;;;;;;;;;18.83;47.97852;100018.3;;;;-58
2022/01/05 01:44:59;;;;;;;2.6;0.7;;;;;;;;;;;;;-55
2022/01/05 01:45:20;;;;;;;;;;;;;;;18.82;47.69336;100018.2;;;;-55
2022/01/05 01:50:20;;;;;;;;;;;;;;;18.81;47.67969;100022;;;;-55
2022/01/05 01:55:20;;;;;;;;;;;;;;;18.82;47.81738;100024.9;;;;-52
2022/01/05 02:00:20;;;;;;;;;;;;;;;18.81;47.62305;100013.3;;;;-55
2022/01/05 02:05:20;;;;;;;;;;;;;;;18.79;47.51855;100014.6;;;;-56
2022/01/05 02:10:20;;;;;;;;;;;;;;;18.8;47.53125;100015.7;;;;-55
2022/01/05 02:15:01;;;;;;;2.1;0.7;;;;;;;;;;;;;-55
2022/01/05 02:15:20;;;;;;;;;;;;;;;18.81;47.36133;100019.9;;;;-53
2022/01/05 02:20:22;;;;;;;;;;;;;;;18.8;47.79297;100012.5;;;;-56
2022/01/05 02:25:20;;;;;;;;;;;;;;;18.82;47.4873;100014;;;;-55
2022/01/05 02:30:22;;;;;;;;;;;;;;;18.81;47.54297;100011.2;;;;-55
2022/01/05 02:35:20;;;;;;;;;;;;;;;18.81;47.21289;100017.8;;;;-58
2022/01/05 02:40:20;;;;;;;;;;;;;;;18.79;47.87207;100029.7;;;;-54
2022/01/05 02:45:03;;;;;;;2.1;0.7;;;;;;;;;;;;;-53
2022/01/05 02:45:21;;;;;;;;;;;;;;;18.76;47.48145;100029.1;;;;-56
2022/01/05 02:50:20;;;;;;;;;;;;;;;18.76;47.44629;100024.1;;;;-57
2022/01/05 02:55:19;;;;;;;;;;;;;;;18.76;47.59473;100040.2;;;;-53
2022/01/05 03:00:20;;;;;;;;;;;;;;;18.76;47.29883;100029.2;;;;-54
2022/01/05 03:05:20;;;;;;;;;;;;;;;18.76;47.11621;100023.6;;;;-54
2022/01/05 03:10:20;;;;;;;;;;;;;;;18.78;47.55176;100035.4;;;;-54
2022/01/05 03:15:06;;;;;;;3;0.8;;;;;;;;;;;;;-52
2022/01/05 03:15:20;;;;;;;;;;;;;;;18.78;47.64355;100034.1;;;;-55
2022/01/05 03:20:22;;;;;;;;;;;;;;;18.77;47.0498;100032.7;;;;-54
2022/01/05 03:25:20;;;;;;;;;;;;;;;18.78;47.43848;100037.1;;;;-53
2022/01/05 03:30:20;;;;;;;;;;;;;;;18.77;47.40332;100036.2;;;;-57
2022/01/05 03:35:20;;;;;;;;;;;;;;;18.78;47.54102;100040.1;;;;-53
2022/01/05 03:40:19;;;;;;;;;;;;;;;18.79;47.66699;100033.6;;;;-53
2022/01/05 03:45:08;;;;;;;3.3;1;;;;;;;;;;;;;-56
2022/01/05 03:45:19;;;;;;;;;;;;;;;18.77;47.16504;100040;;;;-57
2022/01/05 03:50:20;;;;;;;;;;;;;;;18.75;47.58301;100034.9;;;;-57
2022/01/05 03:55:19;;;;;;;;;;;;;;;18.73;47.37695;100037.8;;;;-54
2022/01/05 04:00:20;;;;;;;;;;;;;;;18.75;47.62891;100031.3;;;;-54
2022/01/05 04:05:19;;;;;;;;;;;;;;;18.77;47.55176;100032.8;;;;-56
2022/01/05 04:10:20;;;;;;;;;;;;;;;18.78;47.56348;100034.4;;;;-57
2022/01/05 04:15:10;;;;;;;5;0.9;;;;;;;;;;;;;-57
2022/01/05 04:15:20;;;;;;;;;;;;;;;18.76;47.44629;100047.9;;;;-58
2022/01/05 04:20:20;;;;;;;;;;;;;;;18.74;47.22852;100044.2;;;;-55
2022/01/05 04:25:20;;;;;;;;;;;;;;;18.72;47.14648;100055.7;;;;-54
2022/01/05 04:30:20;;;;;;;;;;;;;;;18.72;47.21582;100043.5;;;;-55
2022/01/05 04:35:20;;;;;;;;;;;;;;;18.72;47.60352;100049.2;;;;-54
2022/01/05 04:40:20;;;;;;;;;;;;;;;18.72;47.10254;100048.5;;;;-54
2022/01/05 04:45:12;;;;;;;2.6;0.7;;;;;;;;;;;;;-54
2022/01/05 04:45:22;;;;;;;;;;;;;;;18.68;46.75586;100065.8;;;;-57
2022/01/05 04:50:20;;;;;;;;;;;;;;;18.67;47.16602;100056.2;;;;-55
2022/01/05 04:55:20;;;;;;;;;;;;;;;18.71;47.30566;100056.7;;;;-56
2022/01/05 05:00:20;;;;;;;;;;;;;;;18.72;47.20508;100051.9;;;;-52
2022/01/05 05:05:20;;;;;;;;;;;;;;;18.72;47.18066;100058.5;;;;-55
2022/01/05 05:10:19;;;;;;;;;;;;;;;18.69;47.15527;100049.7;;;;-55
2022/01/05 05:15:15;;;;;;;2.7;0.8;;;;;;;;;;;;;-56
2022/01/05 05:15:24;;;;;;;;;;;;;;;18.7;47.42969;100044.4;;;;-57
2022/01/05 05:20:20;;;;;;;;;;;;;;;18.7;47.57715;100048.1;;;;-53
2022/01/05 05:25:19;;;;;;;;;;;;;;;18.72;47.47754;100048.7;;;;-53
2022/01/05 05:30:19;;;;;;;;;;;;;;;18.73;47.7168;100045.8;;;;-51
2022/01/05 05:35:20;;;;;;;;;;;;;;;18.76;47.37793;100042.1;;;;-52
2022/01/05 05:40:20;;;;;;;;;;;;;;;18.76;47.53809;100030.9;;;;-56
2022/01/05 05:45:17;;;;;;;3.2;0.8;;;;;;;;;;;;;-55
2022/01/05 05:45:26;;;;;;;;;;;;;;;18.75;47.08203;100043.4;;;;-55
2022/01/05 05:50:20;;;;;;;;;;;;;;;18.75;47.05957;100056.9;;;;-52
2022/01/05 05:55:20;;;;;;;;;;;;;;;18.75;47.50391;100066.6;;;;-57
2022/01/05 06:00:20;;;;;;;;;;;;;;;18.73;47.33008;100057.1;;;;-52
2022/01/05 06:05:19;;;;;;;;;;;;;;;18.73;47.70703;100049.2;;;;-54
2022/01/05 06:10:19;;;;;;;;;;;;;;;18.76;47.62988;100042.4;;;;-50
2022/01/05 06:15:19;;;;;;;3.1;0.9;;;;;;;;;;;;;-51
2022/01/05 06:15:28;;;;;;;;;;;;;;;18.8;47.70215;100042.8;;;;-56
2022/01/05 06:20:19;;;;;;;;;;;;;;;18.78;47.79102;100046;;;;-56
2022/01/05 06:25:19;;;;;;;;;;;;;;;18.81;47.88379;100043.4;;;;-56
2022/01/05 06:30:20;;;;;;;;;;;;;;;18.81;47.60059;100051.2;;;;-55
2022/01/05 06:35:23;;;;;;;;;;;;;;;18.78;47.58594;100061.3;;;;-54
2022/01/05 06:40:20;;;;;;;;;;;;;;;18.74;47.50293;100062.6;;;;-53
2022/01/05 06:45:19;;;;;;;;;;;;;;;18.73;47.56934;100068.9;;;;-52
2022/01/05 06:45:29;;;;;;;2.7;1;;;;;;;;;;;;;-52
2022/01/05 06:50:20;;;;;;;;;;;;;;;18.72;47.4209;100072.2;;;;-57
2022/01/05 06:55:20;;;;;;;;;;;;;;;18.7;47.38379;100083;;;;-52
2022/01/05 07:00:20;;;;;;;;;;;;;;;18.68;47.39355;100093.7;;;;-53
2022/01/05 07:05:19;;;;;;;;;;;;;;;18.69;47.30371;100083.5;;;;-54
2022/01/05 07:10:19;;;;;;;;;;;;;;;18.69;47.33789;100093.9;;;;-56
2022/01/05 07:15:20;;;;;;;;;;;;;;;18.67;47.22266;100085.1;;;;-53
2022/01/05 07:15:29;;;;;;;4.5;1;;;;;;;;;;;;;-53
2022/01/05 07:20:20;;;;;;;;;;;;;;;18.68;47.29102;100103.5;;;;-54
2022/01/05 07:25:20;;;;;;;;;;;;;;;18.7;47.48633;100093;;;;-54
2022/01/05 07:30:20;;;;;;;;;;;;;;;18.73;47.27344;100102.8;;;;-55
2022/01/05 07:35:19;;;;;;;;;;;;;;;18.73;47.55762;100098.4;;;;-52
2022/01/05 07:40:20;;;;;;;;;;;;;;;18.75;47.31055;100117.6;;;;-54
2022/01/05 07:45:20;;;;;;;;;;;;;;;18.74;47.21777;100120.7;;;;-54
2022/01/05 07:45:29;;;;;;;3.7;0.9;;;;;;;;;;;;;-54
2022/01/05 07:50:19;;;;;;;;;;;;;;;18.73;47.1709;100121.2;;;;-52
2022/01/05 07:55:19;;;;;;;;;;;;;;;18.72;47.14648;100120.2;;;;-53
2022/01/05 08:00:20;;;;;;;;;;;;;;;18.69;47.00684;100127.7;;;;-53
2022/01/05 08:05:19;;;;;;;;;;;;;;;18.73;47.20605;100135.6;;;;-53
2022/01/05 08:10:19;;;;;;;;;;;;;;;18.72;46.91895;100156.8;;;;-55
2022/01/05 08:15:20;;;;;;;;;;;;;;;18.69;47.05371;100161.1;;;;-54
2022/01/05 08:15:29;;;;;;;4.7;1.1;;;;;;;;;;;;;-54
2022/01/05 08:20:20;;;;;;;;;;;;;;;18.68;46.9043;100160.8;;;;-53
2022/01/05 08:25:21;;;;;;;;;;;;;;;18.69;47.14355;100188.2;;;;-56
2022/01/05 08:30:20;;;;;;;;;;;;;;;18.64;46.70703;100181;;;;-56
2022/01/05 08:35:20;;;;;;;;;;;;;;;18.61;46.83887;100185.5;;;;-56
2022/01/05 08:40:20;;;;;;;;;;;;;;;18.6;46.83887;100172.3;;;;-52
2022/01/05 08:45:20;;;;;;;;;;;;;;;18.66;46.9248;100175.2;;;;-56
2022/01/05 08:45:30;;;;;;;5.6;1.2;;;;;;;;;;;;;-56
2022/01/05 08:50:20;;;;;;;;;;;;;;;18.63;46.46582;100183.9;;;;-56
2022/01/05 08:55:21;;;;;;;;;;;;;;;18.59;46.54102;100207.9;;;;-55
2022/01/05 09:00:21;;;;;;;;;;;;;;;18.57;46.35742;100200.2;;;;-56
2022/01/05 09:05:20;;;;;;;;;;;;;;;18.56;46.62988;100205.4;;;;-56
2022/01/05 09:10:20;;;;;;;;;;;;;;;18.5;46.77051;100208.1;;;;-57
2022/01/05 09:15:19;;;;;;;;;;;;;;;18.47;49.53223;100234.1;;;;-46
2022/01/05 09:15:34;;;;;;;11.3;1.5;;;;;;;;;;;;;-48
2022/01/05 09:20:19;;;;;;;;;;;;;;;18.64;49.90332;100240.7;;;;-52
2022/01/05 09:25:19;;;;;;;;;;;;;;;18.76;48.9043;100249.9;;;;-47
2022/01/05 09:30:20;;;;;;;;;;;;;;;18.83;48.78613;100248.9;;;;-50
2022/01/05 09:35:22;;;;;;;;;;;;;;;18.83;48.53613;100256.4;;;;-49
2022/01/05 09:45:25;;;;;;;;;;;;;;;18.91;48.00879;100272.4;;;;-52
2022/01/05 09:45:36;;;;;;;9.5;1.9;;;;;;;;;;;;;-52
2022/01/05 09:50:20;;;;;;;;;;;;;;;18.98;48.08594;100278.3;;;;-55
2022/01/05 09:55:20;;;;;;;;;;;;;;;19;48.16797;100295.6;;;;-53
2022/01/05 10:00:20;;;;;;;;;;;;;;;19.04;48.32031;100313.9;;;;-53
2022/01/05 10:05:21;;;;;;;;;;;;;;;19.11;47.92871;100305.1;;;;-50
2022/01/05 10:10:19;;;;;;;;;;;;;;;18.96;47.58203;100333.2;;;;-54
2022/01/05 10:15:20;;;;;;;;;;;;;;;19;47.87207;100344.3;;;;-52
2022/01/05 10:15:37;;;;;;;7;1.6;;;;;;;;;;;;;-51
2022/01/05 10:20:19;;;;;;;;;;;;;;;19.04;47.60352;100338.2;;;;-53
2022/01/05 10:25:24;;;;;;;;;;;;;;;19.06;47.44434;100349.4;;;;-56
2022/01/05 10:30:19;;;;;;;;;;;;;;;19.1;48.01953;100359.4;;;;-49
2022/01/05 10:35:23;;;;;;;;;;;;;;;19.18;47.21777;100362.3;;;;-48
2022/01/05 10:40:22;;;;;;;;;;;;;;;19.14;46.53125;100373.7;;;;-52
2022/01/05 10:45:21;;;;;;;;;;;;;;;18.87;46.35449;100385.1;;;;-49
2022/01/05 10:45:46;;;;;;;9.7;1.7;;;;;;;;;;;;;-52
2022/01/05 10:50:25;;;;;;;;;;;;;;;18.63;45.9873;100385.5;;;;-51
2022/01/05 10:55:20;;;;;;;;;;;;;;;18.42;46.19336;100400.5;;;;-50
2022/01/05 11:00:20;;;;;;;;;;;;;;;18.29;45.84961;100411.6;;;;-53
2022/01/05 11:05:20;;;;;;;;;;;;;;;18.24;46.12891;100421.8;;;;-53
2022/01/05 11:10:20;;;;;;;;;;;;;;;18.29;46.07715;100422.4;;;;-53
2022/01/05 11:15:31;;;;;;;;;;;;;;;18.34;45.88965;100433.4;;;;-50
2022/01/05 11:15:41;;;;;;;8.2;1.6;;;;;;;;;;;;;-53
2022/01/05 11:20:20;;;;;;;;;;;;;;;18.36;46.09668;100440.8;;;;-53
2022/01/05 11:25:19;;;;;;;;;;;;;;;18.34;46.16309;100449.8;;;;-53
2022/01/05 11:30:20;;;;;;;;;;;;;;;18.34;46.51563;100450.8;;;;-53
2022/01/05 11:35:19;;;;;;;;;;;;;;;18.37;46.64453;100453.3;;;;-52
2022/01/05 11:40:21;;;;;;;;;;;;;;;18.39;46.61035;100453.8;;;;-53
2022/01/05 11:45:29;;;;;;;;;;;;;;;18.41;46.60156;100462.6;;;;-50
2022/01/05 11:45:45;;;;;;;6;1.4;;;;;;;;;;;;;-54
2022/01/05 11:50:30;;;;;;;;;;;;;;;18.38;46.66699;100483.9;;;;-52
2022/01/05 11:55:19;;;;;;;;;;;;;;;18.37;46.79297;100488.3;;;;-50
2022/01/05 12:00:23;;;;;;;;;;;;;;;18.39;46.66699;100487.3;;;;-53
2022/01/05 12:05:19;;;;;;;;;;;;;;;18.39;46.83887;100490.6;;;;-52
2022/01/05 12:10:21;;;;;;;;;;;;;;;18.4;46.53418;100497.8;;;;-53
2022/01/05 12:15:29;;;;;;;;;;;;;;;18.38;46.74707;100495.2;;;;-51
2022/01/05 12:15:51;;;;;;;6.9;1.6;;;;;;;;;;;;;-51
2022/01/05 12:20:20;;;;;;;;;;;;;;;18.38;46.81543;100507.6;;;;-52
2022/01/05 12:25:20;;;;;;;;;;;;;;;18.39;47.05566;100521.8;;;;-52
2022/01/05 12:30:30;;;;;;;;;;;;;;;18.37;47.08789;100519;;;;-50
2022/01/05 12:35:24;;;;;;;;;;;;;;;18.35;47.0625;100524.9;;;;-48
2022/01/05 12:40:30;;;;;;;;;;;;;;;18.43;49.69727;100544.6;;;;-49
2022/01/05 12:45:38;;;;;;;;;;;;;;;18.64;49.10742;100551.6;;;;-49
2022/01/05 12:45:55;;;;;;;7.8;1.6;;;;;;;;;;;;;-49
2022/01/05 12:50:23;;;;;;;;;;;;;;;18.84;49.65332;100560.7;;;;-50
2022/01/05 12:55:20;;;;;;;;;;;;;;;18.93;48.33105;100573.7;;;;-47
2022/01/05 13:00:20;;;;;;;;;;;;;;;18.85;48.18652;100580;;;;-51
2022/01/05 13:07:18;;;;;;;12.5;1.8;;;;;;;;;;;;;-83
2022/01/05 13:11:43;;;;;;;;;;;;;;;9.29;66.78906;100634.9;;;;-84
2022/01/05 13:16:47;;;;;;;;;;;;;;;7.58;75.40625;100633.9;;;;-85
2022/01/05 13:21:52;;;;;;;;;;;;;;;7.05;78.67773;100641.1;;;;-86
2022/01/05 13:26:53;;;;;;;;;;;;;;;6.79;80.09961;100666.2;;;;-85
2022/01/05 13:31:41;;;;;;;;;;;;;;;6.66;81.59863;100668.1;;;;-83
2022/01/05 13:36:41;;;;;;;;;;;;;;;6.61;82.26953;100681.7;;;;-82
2022/01/05 13:37:28;;;;;;;10.6;1.7;;;;;;;;;;;;;-84
2022/01/05 13:41:51;;;;;;;;;;;;;;;6.55;82.66309;100682.6;;;;-84
2022/01/05 13:46:41;;;;;;;;;;;;;;;6.48;82.82617;100693.2;;;;-83
2022/01/05 13:51:41;;;;;;;;;;;;;;;6.45;83.35547;100699.4;;;;-86
2022/01/05 13:56:46;;;;;;;;;;;;;;;6.46;83.58887;100709.2;;;;-85
2022/01/05 14:01:45;;;;;;;;;;;;;;;6.51;83.88379;100719.1;;;;-83
2022/01/05 14:06:41;;;;;;;;;;;;;;;6.56;83.94727;100731.2;;;;-84
2022/01/05 14:07:20;;;;;;;7.3;1.4;;;;;;;;;;;;;-84
2022/01/05 14:11:41;;;;;;;;;;;;;;;6.59;83.72266;100736.1;;;;-84
2022/01/05 14:16:44;;;;;;;;;;;;;;;6.6;83.90039;100755.9;;;;-84
2022/01/05 14:21:42;;;;;;;;;;;;;;;6.61;83.79199;100758.6;;;;-83
2022/01/05 14:26:43;;;;;;;;;;;;;;;6.59;83.66797;100762.3;;;;-84
2022/01/05 14:31:42;;;;;;;;;;;;;;;6.54;83.75781;100769.5;;;;-84
2022/01/05 14:36:41;;;;;;;;;;;;;;;6.5;83.83691;100782;;;;-85
2022/01/05 14:37:18;;;;;;;13.8;1.7;;;;;;;;;;;;;-84
2022/01/05 14:41:42;;;;;;;;;;;;;;;6.45;84.11133;100789.9;;;;-85
2022/01/05 14:46:41;;;;;;;;;;;;;;;6.42;84.05078;100795;;;;-84
2022/01/05 14:51:44;;;;;;;;;;;;;;;6.39;84.0332;100806.6;;;;-84
2022/01/05 14:56:43;;;;;;;;;;;;;;;6.35;84.13477;100810.3;;;;-85
2022/01/05 15:01:41;;;;;;;;;;;;;;;6.29;84.15723;100826.6;;;;-83
2022/01/05 15:06:41;;;;;;;;;;;;;;;6.24;84.21387;100833.8;;;;-84
2022/01/05 15:07:18;;;;;;;10.2;1.5;;;;;;;;;;;;;-84
2022/01/05 15:11:44;;;;;;;;;;;;;;;6.18;84.46289;100839;;;;-83
2022/01/05 15:16:42;;;;;;;;;;;;;;;6.09;84.53418;100837.7;;;;-84
2022/01/05 15:21:42;;;;;;;;;;;;;;;6.03;84.5752;100864.2;;;;-84
2022/01/05 15:26:41;;;;;;;;;;;;;;;5.98;84.55664;100878.2;;;;-84
2022/01/05 15:31:41;;;;;;;;;;;;;;;5.95;84.75684;100885.6;;;;-81
2022/01/05 15:36:42;;;;;;;;;;;;;;;5.89;84.62793;100895.5;;;;-83
2022/01/05 15:37:17;;;;;;;9.6;1.8;;;;;;;;;;;;;-84
2022/01/05 15:41:40;;;;;;;;;;;;;;;5.83;84.66797;100915.4;;;;-85
2022/01/05 15:46:47;;;;;;;;;;;;;;;5.74;84.70508;100920.6;;;;-84
2022/01/05 15:51:43;;;;;;;;;;;;;;;5.67;84.6377;100929;;;;-85
2022/01/05 15:56:49;;;;;;;;;;;;;;;5.63;84.78223;100946.9;;;;-85
2022/01/05 16:01:41;;;;;;;;;;;;;;;5.61;84.93164;100982.5;;;;-83
2022/01/05 16:06:43;;;;;;;;;;;;;;;5.57;85.39453;101003.8;;;;-84
2022/01/05 16:07:18;;;;;;;7;1.2;;;;;;;;;;;;;-84
2022/01/05 16:11:42;;;;;;;;;;;;;;;5.49;85.52148;100987;;;;-85
2022/01/05 16:16:41;;;;;;;;;;;;;;;5.4;85.89453;100995.4;;;;-85
2022/01/05 16:21:41;;;;;;;;;;;;;;;5.32;86.15332;101004.9;;;;-87
2022/01/05 16:26:41;;;;;;;;;;;;;;;5.22;86.47168;101021.3;;;;-85
2022/01/05 16:31:41;;;;;;;;;;;;;;;5.15;86.59668;101025.2;;;;-85
2022/01/05 16:36:44;;;;;;;;;;;;;;;5.11;86.66797;101038.8;;;;-83
2022/01/05 16:37:21;;;;;;;3.6;0.9;;;;;;;;;;;;;-84
2022/01/05 16:41:41;;;;;;;;;;;;;;;5.07;86.89844;101046.7;;;;-87
2022/01/05 16:46:41;;;;;;;;;;;;;;;5.05;86.98047;101048;;;;-85
2022/01/05 16:51:42;;;;;;;;;;;;;;;5.03;87.13965;101057.8;;;;-85
2022/01/05 17:01:41;;;;;;;;;;;;;;;5;87.38477;101082.6;;;;-86
2022/01/05 17:06:42;;;;;;;;;;;;;;;4.97;87.36914;101092.1;;;;-85
2022/01/05 17:07:17;;;;;;;7.6;1.2;;;;;;;;;;;;;-85
2022/01/05 17:11:48;;;;;;;;;;;;;;;4.93;87.40332;101093.6;;;;-85
2022/01/05 17:16:42;;;;;;;;;;;;;;;4.87;87.4248;101095.9;;;;-86
2022/01/05 17:21:41;;;;;;;;;;;;;;;4.82;87.42676;101099;;;;-85
2022/01/05 17:26:43;;;;;;;;;;;;;;;4.78;87.40625;101129.8;;;;-85
2022/01/05 17:31:42;;;;;;;;;;;;;;;4.75;87.64063;101119.6;;;;-85
2022/01/05 17:36:42;;;;;;;;;;;;;;;4.7;87.65137;101124.8;;;;-86
2022/01/05 17:37:16;;;;;;;9.4;1.7;;;;;;;;;;;;;-84
2022/01/05 17:41:45;;;;;;;;;;;;;;;4.63;87.625;101130.6;;;;-85
2022/01/05 17:46:48;;;;;;;;;;;;;;;4.55;87.65234;101136.9;;;;-85
2022/01/05 17:51:42;;;;;;;;;;;;;;;4.47;87.79883;101144.9;;;;-85
2022/01/05 18:06:54;;;;;;;;;;;;;;;4.35;88.24512;101182.8;;;;-87
2022/01/05 18:07:33;;;;;;;6.6;1.3;;;;;;;;;;;;;-87
2022/01/05 18:11:42;;;;;;;;;;;;;;;4.36;88.18164;101196.1;;;;-86
2022/01/05 18:16:46;;;;;;;;;;;;;;;4.36;88.24707;101207;;;;-86
2022/01/05 18:21:41;;;;;;;;;;;;;;;4.34;88.19922;101214.5;;;;-86
2022/01/05 18:26:43;;;;;;;;;;;;;;;4.31;88.08301;101232.3;;;;-85
2022/01/05 18:31:41;;;;;;;;;;;;;;;4.27;88.08496;101246.2;;;;-86
2022/01/05 18:36:43;;;;;;;;;;;;;;;4.22;88.03223;101257.5;;;;-85
2022/01/05 18:37:16;;;;;;;6.7;1.1;;;;;;;;;;;;;-84
2022/01/05 18:41:41;;;;;;;;;;;;;;;4.19;88.0918;101257.9;;;;-88
2022/01/05 18:46:42;;;;;;;;;;;;;;;4.18;88.0459;101261.1;;;;-86
2022/01/05 18:51:41;;;;;;;;;;;;;;;4.14;88.13477;101256.7;;;;-84
2022/01/05 18:56:47;;;;;;;;;;;;;;;4.11;88.10742;101257.9;;;;-86
2022/01/05 19:01:43;;;;;;;;;;;;;;;4.07;88.20898;101264.6;;;;-86
2022/01/05 19:06:43;;;;;;;;;;;;;;;4.02;88.23242;101268.7;;;;-85
2022/01/05 19:07:16;;;;;;;8.9;1.5;;;;;;;;;;;;;-85
2022/01/05 19:11:44;;;;;;;;;;;;;;;3.97;88.24316;101290.1;;;;-84
2022/01/05 19:16:46;;;;;;;;;;;;;;;3.91;88.27344;101294.3;;;;-84
2022/01/05 19:21:40;;;;;;;;;;;;;;;3.87;88.25293;101310;;;;-85
2022/01/05 19:26:42;;;;;;;;;;;;;;;3.84;88.09668;101309.8;;;;-86
2022/01/05 19:31:42;;;;;;;;;;;;;;;3.82;88.07129;101316.6;;;;-86
2022/01/05 19:36:42;;;;;;;;;;;;;;;3.8;88.05664;101323.5;;;;-85
2022/01/05 19:37:15;;;;;;;10.3;1.5;;;;;;;;;;;;;-85
2022/01/05 19:41:43;;;;;;;;;;;;;;;3.78;88.12793;101323.8;;;;-86
2022/01/05 19:46:40;;;;;;;;;;;;;;;3.74;88.15039;101325;;;;-85
2022/01/05 19:51:46;;;;;;;;;;;;;;;3.69;88.12891;101333.9;;;;-85
2022/01/05 19:56:47;;;;;;;;;;;;;;;3.63;88.17188;101339;;;;-86
2022/01/05 20:01:42;;;;;;;;;;;;;;;3.57;88.18262;101344.8;;;;-85
2022/01/05 20:06:41;;;;;;;;;;;;;;;3.51;88.20215;101353;;;;-84
2022/01/05 20:07:15;;;;;;;6.8;1.4;;;;;;;;;;;;;-85
2022/01/05 20:11:42;;;;;;;;;;;;;;;3.46;88.2793;101347.9;;;;-85
2022/01/05 20:16:41;;;;;;;;;;;;;;;3.41;88.22461;101352.9;;;;-85
2022/01/05 20:21:42;;;;;;;;;;;;;;;3.38;88.32813;101361.4;;;;-85
2022/01/05 20:26:41;;;;;;;;;;;;;;;3.34;88.40527;101366.8;;;;-85
2022/01/05 20:31:42;;;;;;;;;;;;;;;3.31;88.35645;101376.9;;;;-84
2022/01/05 20:36:41;;;;;;;;;;;;;;;3.28;88.3291;101377;;;;-85
2022/01/05 20:37:14;;;;;;;10.2;1.5;;;;;;;;;;;;;-85
2022/01/05 20:41:41;;;;;;;;;;;;;;;3.28;88.3291;101388.4;;;;-86
2022/01/05 20:46:40;;;;;;;;;;;;;;;3.27;88.22754;101384.3;;;;-85
2022/01/05 20:51:40;;;;;;;;;;;;;;;3.24;88.10449;101397.3;;;;-84
2022/01/05 20:56:41;;;;;;;;;;;;;;;3.21;87.96875;101407.4;;;;-85
2022/01/05 21:01:41;;;;;;;;;;;;;;;3.18;87.86328;101415;;;;-85
2022/01/05 21:06:40;;;;;;;;;;;;;;;3.15;87.91211;101417.5;;;;-84
2022/01/05 21:07:13;;;;;;;7.1;1;;;;;;;;;;;;;-84
2022/01/05 21:11:41;;;;;;;;;;;;;;;3.12;87.96094;101424.8;;;;-84
2022/01/05 21:16:40;;;;;;;;;;;;;;;3.08;88.00586;101426.6;;;;-85
2022/01/05 21:21:43;;;;;;;;;;;;;;;3.04;88.08496;101432.6;;;;-86
2022/01/05 21:26:41;;;;;;;;;;;;;;;3;88.19727;101433.8;;;;-86
2022/01/05 21:31:41;;;;;;;;;;;;;;;2.95;88.22949;101442.7;;;;-86
2022/01/05 21:36:43;;;;;;;;;;;;;;;2.91;88.28516;101450.3;;;;-84
2022/01/05 21:37:12;;;;;;;6.3;1.1;;;;;;;;;;;;;-86
2022/01/05 21:41:41;;;;;;;;;;;;;;;2.87;88.34473;101449.5;;;;-84
2022/01/05 21:46:40;;;;;;;;;;;;;;;2.82;88.34473;101455.9;;;;-84
2022/01/05 21:51:40;;;;;;;;;;;;;;;2.78;88.20508;101462;;;;-83
2022/01/05 21:56:42;;;;;;;;;;;;;;;2.76;88.14648;101473.9;;;;-84
2022/01/05 22:01:42;;;;;;;;;;;;;;;2.74;88.08691;101469.5;;;;-84
2022/01/05 22:06:42;;;;;;;;;;;;;;;2.74;88.0459;101481;;;;-83
2022/01/05 22:07:11;;;;;;;7.1;1.1;;;;;;;;;;;;;-83
2022/01/05 22:11:41;;;;;;;;;;;;;;;2.73;88.06348;101482.2;;;;-83
2022/01/05 22:16:41;;;;;;;;;;;;;;;2.72;88.06152;101488.8;;;;-84
2022/01/05 22:21:40;;;;;;;;;;;;;;;2.71;88.11426;101498.1;;;;-84
2022/01/05 22:26:42;;;;;;;;;;;;;;;2.69;88.1123;101509.5;;;;-84
2022/01/05 22:31:41;;;;;;;;;;;;;;;2.67;88.16309;101517.1;;;;-85
2022/01/05 22:36:41;;;;;;;;;;;;;;;2.65;88.20898;101523.5;;;;-85
2022/01/05 22:37:11;;;;;;;5.8;0.8;;;;;;;;;;;;;-84
2022/01/05 22:41:40;;;;;;;;;;;;;;;2.63;88.29395;101545.1;;;;-85
2022/01/05 22:46:41;;;;;;;;;;;;;;;2.62;88.25977;101549.8;;;;-85
2022/01/05 22:51:40;;;;;;;;;;;;;;;2.63;88.27246;101554.7;;;;-84
2022/01/05 22:56:43;;;;;;;;;;;;;;;2.62;88.30273;101564.8;;;;-84
2022/01/05 23:01:41;;;;;;;;;;;;;;;2.61;88.32129;101566.8;;;;-85
2022/01/05 23:06:42;;;;;;;;;;;;;;;2.6;88.33008;101567.4;;;;-84
2022/01/05 23:07:11;;;;;;;6.8;0.8;;;;;;;;;;;;;-84
2022/01/05 23:11:42;;;;;;;;;;;;;;;2.59;88.29395;101574.5;;;;-85
2022/01/05 23:16:41;;;;;;;;;;;;;;;2.56;88.31152;101573.9;;;;-84
2022/01/05 23:21:40;;;;;;;;;;;;;;;2.55;88.28613;101580.3;;;;-84
2022/01/05 23:26:40;;;;;;;;;;;;;;;2.54;88.29688;101581.5;;;;-84
2022/01/05 23:31:41;;;;;;;;;;;;;;;2.51;88.35449;101588;;;;-84
2022/01/05 23:36:40;;;;;;;;;;;;;;;2.48;88.43555;101593.1;;;;-83
2022/01/05 23:37:09;;;;;;;7;1;;;;;;;;;;;;;-82
2022/01/05 23:41:40;;;;;;;;;;;;;;;2.47;88.45508;101608.7;;;;-85
2022/01/05 23:46:40;;;;;;;;;;;;;;;2.44;88.43848;101610.7;;;;-83
2022/01/05 23:51:41;;;;;;;;;;;;;;;2.4;88.39941;101613.3;;;;-83
2022/01/05 23:56:41;;;;;;;;;;;;;;;2.4;88.36621;101613;;;;-84
